Time;durP1;ratioP1;P1;durP2;ratioP2;P2;SDS_P1;SDS_P2;PMS_P1;PMS_P2;Temp;Humidity;BMP_temperature;BMP_pressure;BME280_temperature;BME280_humidity;BME280_pressure;Samples;Min_cycle;Max_cycle;Signal;HPM_P1;HPM_P2
2022/06/17 00:01:46;;;;;;;;;13.00;12.00;;;;;-147.17;100.00;-15917.19;5059592;27;51204;-67
2022/06/17 00:04:12;;;;;;;;;14.00;14.00;;;;;-147.17;100.00;-15917.19;5063916;28;51131;-67
2022/06/17 00:06:49;;;;;;;;;13.33;13.00;;;;;-147.17;100.00;-15917.19;5064647;28;50919;-68
2022/06/17 00:09:18;;;;;;;;;13.67;13.00;;;;;-147.17;100.00;-15917.19;5056712;27;51899;-67
2022/06/17 00:11:44;;;;;;;;;12.00;12.00;;;;;-147.17;100.00;-15917.19;5060563;27;51315;-65
2022/06/17 00:14:17;;;;;;;;;11.67;11.67;;;;;-147.17;100.00;-15917.19;5059911;28;51416;-65
2022/06/17 00:16:43;;;;;;;;;12.67;11.67;;;;;-147.17;100.00;-15917.19;5065839;27;51188;-63
2022/06/17 00:19:09;;;;;;;;;12.00;12.00;;;;;-147.17;100.00;-15917.19;5059751;28;51974;-66
2022/06/17 00:21:37;;;;;;;;;10.67;10.67;;;;;-147.17;100.00;-15917.19;5060133;27;51038;-64
2022/06/17 00:24:19;;;;;;;;;14.00;14.00;;;;;-147.17;100.00;-15917.19;5058407;28;51460;-66
2022/06/17 00:26:44;;;;;;;;;11.67;11.00;;;;;-147.17;100.00;-15917.19;5065339;28;51053;-65
2022/06/17 00:29:18;;;;;;;;;13.33;12.67;;;;;-147.17;100.00;-15917.19;5061175;28;51104;-65
2022/06/17 00:31:44;;;;;;;;;12.00;12.00;;;;;-147.17;100.00;-15917.19;5054829;28;51142;-65
2022/06/17 00:34:10;;;;;;;;;12.33;12.33;;;;;-147.17;100.00;-15917.19;5061563;27;51579;-66
2022/06/17 00:36:36;;;;;;;;;11.00;11.00;;;;;-147.17;100.00;-15917.19;5064695;28;51279;-64
2022/06/17 00:39:09;;;;;;;;;11.00;11.00;;;;;-147.17;100.00;-15917.19;5063014;28;52622;-65
2022/06/17 00:41:38;;;;;;;;;11.00;11.00;;;;;-147.17;100.00;-15917.19;5060227;28;51168;-66
2022/06/17 00:44:32;;;;;;;;;12.00;11.00;;;;;-147.17;100.00;-15917.19;5047876;28;51172;-65
2022/06/17 00:47:04;;;;;;;;;11.33;11.33;;;;;-147.17;100.00;-15917.19;5058994;28;51171;-67
2022/06/17 00:49:54;;;;;;;;;11.67;11.67;;;;;-147.17;100.00;-15917.19;5059781;28;51878;-66
2022/06/17 00:52:34;;;;;;;;;11.67;11.67;;;;;-147.17;100.00;-15917.19;5063959;27;51083;-66
2022/06/17 00:55:11;;;;;;;;;9.33;9.00;;;;;-147.17;100.00;-15917.19;5060640;27;51250;-67
2022/06/17 00:57:39;;;;;;;;;10.33;9.67;;;;;-147.17;100.00;-15917.19;5060871;27;51408;-67
2022/06/17 01:00:08;;;;;;;;;10.00;10.00;;;;;-147.17;100.00;-15917.19;5060961;27;52155;-69
2022/06/17 01:02:37;;;;;;;;;9.33;9.33;;;;;-147.17;100.00;-15917.19;5067287;28;51178;-67
2022/06/17 01:05:04;;;;;;;;;11.00;11.00;;;;;-147.17;100.00;-15917.19;5063351;28;51482;-66
2022/06/17 01:07:36;;;;;;;;;10.00;10.00;;;;;-147.17;100.00;-15917.19;5057013;27;51008;-67
2022/06/17 01:10:09;;;;;;;;;10.00;9.33;;;;;-147.17;100.00;-15917.19;5060617;28;51031;-69
2022/06/17 01:12:49;;;;;;;;;11.00;10.00;;;;;-147.17;100.00;-15917.19;5066126;28;51189;-68
2022/06/17 01:15:18;;;;;;;;;11.67;11.67;;;;;-147.17;100.00;-15917.19;5060848;27;51079;-69
2022/06/17 01:17:46;;;;;;;;;11.00;11.00;;;;;-147.17;100.00;-15917.19;5063052;28;51454;-69
2022/06/17 01:20:13;;;;;;;;;11.33;10.33;;;;;-147.17;100.00;-15917.19;5068479;27;51176;-69
2022/06/17 01:22:38;;;;;;;;;12.33;11.33;;;;;-147.17;100.00;-15917.19;5069104;27;51277;-69
2022/06/17 01:25:15;;;;;;;;;10.00;10.00;;;;;-147.17;100.00;-15917.19;5057271;28;51102;-69
2022/06/17 01:28:09;;;;;;;;;9.33;9.33;;;;;-147.17;100.00;-15917.19;5072609;27;51019;-69
2022/06/17 01:30:40;;;;;;;;;13.00;12.00;;;;;-147.17;100.00;-15917.19;5068132;28;51106;-70
2022/06/17 01:33:11;;;;;;;;;9.33;9.33;;;;;-147.17;100.00;-15917.19;5069644;28;51093;-69
2022/06/17 01:36:18;;;;;;;;;9.33;9.33;;;;;-147.17;100.00;-15917.19;5072056;27;51203;-69
2022/06/17 01:38:48;;;;;;;;;11.00;11.00;;;;;-147.17;100.00;-15917.19;5059791;28;51121;-68
2022/06/17 01:41:15;;;;;;;;;11.67;11.67;;;;;-147.17;100.00;-15917.19;5059852;28;51230;-69
2022/06/17 01:43:56;;;;;;;;;11.67;10.67;;;;;-147.17;100.00;-15917.19;5061735;28;51201;-69
2022/06/17 01:46:28;;;;;;;;;11.00;11.00;;;;;-147.17;100.00;-15917.19;5063621;27;51160;-70
2022/06/17 01:49:04;;;;;;;;;11.67;11.67;;;;;-147.17;100.00;-15917.19;5059350;28;51391;-69
2022/06/17 01:51:34;;;;;;;;;11.00;11.00;;;;;-147.17;100.00;-15917.19;5068298;28;51102;-69
2022/06/17 01:54:05;;;;;;;;;7.33;7.33;;;;;-147.17;100.00;-15917.19;5064393;28;51154;-69
2022/06/17 01:56:34;;;;;;;;;11.00;11.00;;;;;-147.17;100.00;-15917.19;5042528;28;51176;-68
2022/06/17 01:59:10;;;;;;;;;10.33;10.33;;;;;-147.17;100.00;-15917.19;5060799;28;51258;-70
2022/06/17 02:01:40;;;;;;;;;8.33;8.33;;;;;-147.17;100.00;-15917.19;5062623;28;51033;-70
2022/06/17 02:04:12;;;;;;;;;12.00;11.67;;;;;-147.17;100.00;-15917.19;5068178;27;51272;-70
2022/06/17 02:06:54;;;;;;;;;11.00;11.00;;;;;-147.17;100.00;-15917.19;5058774;27;51032;-69
2022/06/17 02:09:20;;;;;;;;;12.00;11.67;;;;;-147.17;100.00;-15917.19;5060837;27;51062;-69
2022/06/17 02:11:47;;;;;;;;;10.67;10.67;;;;;-147.17;100.00;-15917.19;5062115;27;51692;-70
2022/06/17 02:14:13;;;;;;;;;11.00;10.67;;;;;-147.17;100.00;-15917.19;5070881;27;51011;-70
2022/06/17 02:16:43;;;;;;;;;11.00;11.00;;;;;-147.17;100.00;-15917.19;5067322;27;51082;-69
2022/06/17 02:19:09;;;;;;;;;9.00;9.00;;;;;-147.17;100.00;-15917.19;5058710;28;51226;-70
2022/06/17 02:21:44;;;;;;;;;10.00;10.00;;;;;-147.17;100.00;-15917.19;5070529;27;51740;-70
2022/06/17 02:24:11;;;;;;;;;11.00;11.00;;;;;-147.17;100.00;-15917.19;5070824;27;50982;-70
2022/06/17 02:26:38;;;;;;;;;10.67;10.00;;;;;-147.17;100.00;-15917.19;5070727;27;51225;-70
2022/06/17 02:29:08;;;;;;;;;10.67;10.33;;;;;-147.17;100.00;-15917.19;5065696;27;50996;-70
2022/06/17 02:31:35;;;;;;;;;10.33;10.33;;;;;-147.17;100.00;-15917.19;5065878;28;51246;-70
2022/06/17 02:34:03;;;;;;;;;11.33;10.00;;;;;-147.17;100.00;-15917.19;5058099;27;51067;-70
2022/06/17 02:36:40;;;;;;;;;12.00;11.67;;;;;-147.17;100.00;-15917.19;5062625;28;51076;-69
2022/06/17 02:39:06;;;;;;;;;12.33;11.67;;;;;-147.17;100.00;-15917.19;5062949;28;51150;-70
2022/06/17 02:41:32;;;;;;;;;15.00;14.00;;;;;-147.17;100.00;-15917.19;5057886;28;52159;-70
2022/06/17 02:44:11;;;;;;;;;11.00;11.00;;;;;-147.17;100.00;-15917.19;5068756;27;51080;-70
2022/06/17 02:46:41;;;;;;;;;12.00;12.00;;;;;-147.17;100.00;-15917.19;5070430;28;51299;-70
2022/06/17 02:49:16;;;;;;;;;12.00;12.00;;;;;-147.17;100.00;-15917.19;5065227;27;51075;-70
2022/06/17 02:51:43;;;;;;;;;12.00;12.00;;;;;-147.17;100.00;-15917.19;5067830;27;52212;-70
2022/06/17 02:54:18;;;;;;;;;8.67;8.67;;;;;-147.17;100.00;-15917.19;5063494;28;51183;-71
2022/06/17 02:56:49;;;;;;;;;13.67;12.00;;;;;-147.17;100.00;-15917.19;5063228;28;51110;-71
2022/06/17 02:59:20;;;;;;;;;12.67;12.00;;;;;-147.17;100.00;-15917.19;5066063;27;50998;-70
2022/06/17 03:01:54;;;;;;;;;12.00;12.00;;;;;-147.17;100.00;-15917.19;5055498;27;53037;-71
2022/06/17 03:04:23;;;;;;;;;13.00;13.00;;;;;-147.17;100.00;-15917.19;5058790;28;51091;-70
2022/06/17 03:06:50;;;;;;;;;13.00;13.00;;;;;-147.17;100.00;-15917.19;5066374;28;51144;-71
2022/06/17 03:09:15;;;;;;;;;14.67;13.00;;;;;-147.17;100.00;-15917.19;5059400;27;51030;-70
2022/06/17 03:11:42;;;;;;;;;13.33;13.33;;;;;-147.17;100.00;-15917.19;5063447;28;52228;-70
2022/06/17 03:14:09;;;;;;;;;11.00;11.00;;;;;-147.17;100.00;-15917.19;5051282;28;50992;-70
2022/06/17 03:16:35;;;;;;;;;12.67;12.00;;;;;-147.17;100.00;-15917.19;5062177;28;51222;-70
2022/06/17 03:19:02;;;;;;;;;11.33;11.33;;;;;-147.17;100.00;-15917.19;5062119;28;51066;-70
2022/06/17 03:21:27;;;;;;;;;14.67;13.00;;;;;-147.17;100.00;-15917.19;5081255;27;51219;-71
2022/06/17 03:24:04;;;;;;;;;10.33;10.33;;;;;-147.17;100.00;-15917.19;5061401;28;51083;-71
2022/06/17 03:26:40;;;;;;;;;12.00;11.33;;;;;-147.17;100.00;-15917.19;5069341;27;51231;-70
2022/06/17 03:29:07;;;;;;;;;12.00;11.67;;;;;-147.17;100.00;-15917.19;5056830;28;51221;-71
2022/06/17 03:31:46;;;;;;;;;12.33;12.00;;;;;-147.17;100.00;-15917.19;5065951;27;51862;-71
2022/06/17 03:34:20;;;;;;;;;12.00;11.00;;;;;-147.17;100.00;-15917.19;5071487;28;51196;-71
2022/06/17 03:36:59;;;;;;;;;11.33;11.00;;;;;-147.17;100.00;-15917.19;5066694;28;51109;-70
2022/06/17 03:39:48;;;;;;;;;10.33;10.00;;;;;-147.17;100.00;-15917.19;5062549;28;51315;-70
2022/06/17 03:42:23;;;;;;;;;11.00;11.00;;;;;-147.17;100.00;-15917.19;5061203;27;51136;-71
2022/06/17 03:44:59;;;;;;;;;10.33;10.33;;;;;-147.17;100.00;-15917.19;5070397;28;51074;-71
2022/06/17 03:47:32;;;;;;;;;10.00;10.00;;;;;-147.17;100.00;-15917.19;5068307;27;51188;-71
2022/06/17 03:50:02;;;;;;;;;10.00;10.00;;;;;-147.17;100.00;-15917.19;5068700;28;50995;-71
2022/06/17 03:52:43;;;;;;;;;9.33;9.33;;;;;-147.17;100.00;-15917.19;5063489;28;51120;-70
2022/06/17 03:55:13;;;;;;;;;12.33;12.00;;;;;-147.17;100.00;-15917.19;5059683;27;51104;-71
2022/06/17 03:57:41;;;;;;;;;9.67;9.67;;;;;-147.17;100.00;-15917.19;5056601;28;51163;-71
2022/06/17 04:00:18;;;;;;;;;10.33;10.33;;;;;-147.17;100.00;-15917.19;5066071;28;51161;-70
2022/06/17 04:02:44;;;;;;;;;9.00;9.00;;;;;-147.17;100.00;-15917.19;5049736;28;51903;-70
2022/06/17 04:05:14;;;;;;;;;12.33;12.33;;;;;-147.17;100.00;-15917.19;5064771;27;51313;-71
2022/06/17 04:07:40;;;;;;;;;11.67;11.00;;;;;-147.17;100.00;-15917.19;5050746;28;51139;-71
2022/06/17 04:10:06;;;;;;;;;11.00;10.33;;;;;-147.17;100.00;-15917.19;5055956;28;51182;-72
2022/06/17 04:12:32;;;;;;;;;13.00;13.00;;;;;-147.17;100.00;-15917.19;5058211;27;51990;-71
2022/06/17 04:15:03;;;;;;;;;10.00;10.00;;;;;-147.17;100.00;-15917.19;5057993;28;51146;-71
2022/06/17 04:17:37;;;;;;;;;13.00;12.00;;;;;-147.17;100.00;-15917.19;5069161;27;51174;-71
2022/06/17 04:20:23;;;;;;;;;11.00;11.00;;;;;-147.17;100.00;-15917.19;5063514;28;51327;-71
2022/06/17 04:22:52;;;;;;;;;13.00;12.00;;;;;-147.17;100.00;-15917.19;5068152;27;51121;-73
2022/06/17 04:25:29;;;;;;;;;11.00;9.33;;;;;-147.17;100.00;-15917.19;5061828;28;51128;-71
2022/06/17 04:27:56;;;;;;;;;12.33;12.00;;;;;-147.17;100.00;-15917.19;5052551;27;51146;-71
2022/06/17 04:30:26;;;;;;;;;12.33;11.67;;;;;-147.17;100.00;-15917.19;5061055;28;51311;-70
2022/06/17 04:33:02;;;;;;;;;12.25;12.25;;;;;-147.17;100.00;-15917.19;5069769;28;51137;-71
2022/06/17 04:35:28;;;;;;;;;15.33;12.00;;;;;-147.17;100.00;-15917.19;5072371;27;51221;-70
2022/06/17 04:37:53;;;;;;;;;11.33;11.33;;;;;-147.17;100.00;-15917.19;5066779;27;51115;-70
2022/06/17 04:40:40;;;;;;;;;11.00;11.00;;;;;-147.17;100.00;-15917.19;5069706;28;51261;-70
2022/06/17 04:43:40;;;;;;;;;13.67;12.33;;;;;-147.17;100.00;-15917.19;5058099;28;51404;-70
2022/06/17 04:46:09;;;;;;;;;13.67;12.33;;;;;-147.17;100.00;-15917.19;5057475;28;51142;-69
2022/06/17 04:48:35;;;;;;;;;10.00;10.00;;;;;-147.17;100.00;-15917.19;5063081;28;51385;-72
2022/06/17 04:51:02;;;;;;;;;12.33;12.00;;;;;-147.17;100.00;-15917.19;5060657;27;51276;-70
2022/06/17 04:53:31;;;;;;;;;12.00;12.00;;;;;-147.17;100.00;-15917.19;5070044;27;51840;-69
2022/06/17 04:55:56;;;;;;;;;11.00;11.00;;;;;-147.17;100.00;-15917.19;5065761;28;51091;-70
2022/06/17 04:58:24;;;;;;;;;10.67;10.33;;;;;-147.17;100.00;-15917.19;5058912;28;50961;-69
2022/06/17 05:00:54;;;;;;;;;10.67;10.67;;;;;-147.17;100.00;-15917.19;5057359;28;51229;-70
2022/06/17 05:03:23;;;;;;;;;10.33;10.33;;;;;-147.17;100.00;-15917.19;5066342;28;53823;-71
2022/06/17 05:05:48;;;;;;;;;11.00;11.00;;;;;-147.17;100.00;-15917.19;5066690;28;51257;-69
2022/06/17 05:08:35;;;;;;;;;10.50;10.50;;;;;-147.17;100.00;-15917.19;5068794;27;51141;-70
2022/06/17 05:11:07;;;;;;;;;10.00;10.00;;;;;-147.17;100.00;-15917.19;5067447;28;51041;-72
2022/06/17 05:13:42;;;;;;;;;8.00;8.00;;;;;-147.17;100.00;-15917.19;5069655;27;51066;-70
2022/06/17 05:16:12;;;;;;;;;10.33;9.67;;;;;-147.17;100.00;-15917.19;5062964;28;50984;-70
2022/06/17 05:18:37;;;;;;;;;9.00;8.67;;;;;-147.17;100.00;-15917.19;5061834;27;51288;-71
2022/06/17 05:21:03;;;;;;;;;9.00;9.00;;;;;-147.17;100.00;-15917.19;5066686;27;51079;-70
2022/06/17 05:23:28;;;;;;;;;10.67;10.67;;;;;-147.17;100.00;-15917.19;5054045;28;51277;-71
2022/06/17 05:25:54;;;;;;;;;11.33;11.33;;;;;-147.17;100.00;-15917.19;5069304;28;51421;-70
2022/06/17 05:28:20;;;;;;;;;11.33;11.00;;;;;-147.17;100.00;-15917.19;5062509;27;51677;-70
2022/06/17 05:30:51;;;;;;;;;11.67;10.00;;;;;-147.17;100.00;-15917.19;5069636;28;51214;-70
2022/06/17 05:33:17;;;;;;;;;11.33;11.33;;;;;-147.17;100.00;-15917.19;5071562;27;51291;-70
2022/06/17 05:35:43;;;;;;;;;11.00;11.00;;;;;-147.17;100.00;-15917.19;5053517;28;51212;-70
2022/06/17 05:38:09;;;;;;;;;10.33;9.33;;;;;-147.17;100.00;-15917.19;5065812;27;51246;-70
2022/06/17 05:40:36;;;;;;;;;11.00;11.00;;;;;-147.17;100.00;-15917.19;5067225;27;51397;-69
2022/06/17 05:43:01;;;;;;;;;13.00;12.00;;;;;-147.17;100.00;-15917.19;5070270;28;53826;-70
2022/06/17 05:45:28;;;;;;;;;9.00;9.00;;;;;-147.17;100.00;-15917.19;5070224;27;51160;-69
2022/06/17 05:47:53;;;;;;;;;11.67;11.33;;;;;-147.17;100.00;-15917.19;5055912;27;51079;-69
2022/06/17 05:50:21;;;;;;;;;10.67;10.00;;;;;-147.17;100.00;-15917.19;5060223;27;51021;-70
2022/06/17 05:52:48;;;;;;;;;9.00;9.00;;;;;-147.17;100.00;-15917.19;5070010;27;51101;-71
2022/06/17 05:55:13;;;;;;;;;7.33;7.33;;;;;-147.17;100.00;-15917.19;5066765;28;51095;-69
2022/06/17 05:57:38;;;;;;;;;11.00;11.00;;;;;-147.17;100.00;-15917.19;5069906;27;51793;-70
2022/06/17 06:00:04;;;;;;;;;10.33;10.00;;;;;-147.17;100.00;-15917.19;5064131;28;51308;-69
2022/06/17 06:02:30;;;;;;;;;12.33;11.67;;;;;-147.17;100.00;-15917.19;5064697;28;53089;-70
2022/06/17 06:04:55;;;;;;;;;9.00;8.00;;;;;-147.17;100.00;-15917.19;5070382;28;51071;-68
2022/06/17 06:07:21;;;;;;;;;5.00;5.00;;;;;-147.17;100.00;-15917.19;5061922;27;51504;-61
2022/06/17 06:09:46;;;;;;;;;11.00;11.00;;;;;-147.17;100.00;-15917.19;5061867;28;51064;-61
2022/06/17 06:12:11;;;;;;;;;10.67;10.67;;;;;-147.17;100.00;-15917.19;5064566;27;51307;-61
2022/06/17 06:14:37;;;;;;;;;12.33;11.33;;;;;-147.17;100.00;-15917.19;5058573;27;51545;-63
2022/06/17 06:17:03;;;;;;;;;10.67;9.67;;;;;-147.17;100.00;-15917.19;5063663;28;51415;-72
2022/06/17 06:19:30;;;;;;;;;12.67;12.67;;;;;-147.17;100.00;-15917.19;5065166;28;51276;-68
2022/06/17 06:22:01;;;;;;;;;12.33;12.00;;;;;-147.17;100.00;-15917.19;5058147;27;52326;-76
2022/06/17 06:24:27;;;;;;;;;12.00;12.00;;;;;-147.17;100.00;-15917.19;5069109;28;51333;-60
2022/06/17 06:26:52;;;;;;;;;12.00;9.67;;;;;-147.17;100.00;-15917.19;5064806;27;51141;-62
2022/06/17 06:29:18;;;;;;;;;14.00;14.00;;;;;-147.17;100.00;-15917.19;5062839;27;51318;-70
2022/06/17 06:31:44;;;;;;;;;11.33;11.00;;;;;-147.17;100.00;-15917.19;5061901;28;52164;-69
2022/06/17 06:34:10;;;;;;;;;10.33;10.33;;;;;-147.17;100.00;-15917.19;5071744;27;51131;-67
2022/06/17 06:36:36;;;;;;;;;9.00;9.00;;;;;-147.17;100.00;-15917.19;5059497;28;51166;-64
2022/06/17 06:39:01;;;;;;;;;10.67;10.67;;;;;-147.17;100.00;-15917.19;5055476;28;51400;-69
2022/06/17 06:41:27;;;;;;;;;11.00;10.00;;;;;-147.17;100.00;-15917.19;5063775;28;51426;-68
2022/06/17 06:43:52;;;;;;;;;14.67;13.67;;;;;-147.17;100.00;-15917.19;5051162;28;51133;-67
2022/06/17 06:46:19;;;;;;;;;13.33;13.33;;;;;-147.17;100.00;-15917.19;5052699;28;51362;-63
2022/06/17 06:48:45;;;;;;;;;12.00;12.00;;;;;-147.17;100.00;-15917.19;5055087;28;51162;-62
2022/06/17 06:51:11;;;;;;;;;13.00;13.00;;;;;-147.17;100.00;-15917.19;5058543;28;51338;-69
2022/06/17 06:53:36;;;;;;;;;12.67;11.67;;;;;-147.17;100.00;-15917.19;5053664;28;52799;-65
2022/06/17 06:56:03;;;;;;;;;11.00;10.33;;;;;-147.17;100.00;-15917.19;5064516;27;51208;-68
2022/06/17 06:58:28;;;;;;;;;11.67;10.67;;;;;-147.17;100.00;-15917.19;5059368;27;51114;-66
2022/06/17 07:00:56;;;;;;;;;13.00;11.67;;;;;-147.17;100.00;-15917.19;5056381;28;52058;-69
2022/06/17 07:03:23;;;;;;;;;12.00;11.00;;;;;-147.17;100.00;-15917.19;5060483;27;51303;-65
2022/06/17 07:05:51;;;;;;;;;12.00;11.67;;;;;-147.17;100.00;-15917.19;5053390;28;51142;-59
2022/06/17 07:08:20;;;;;;;;;10.67;10.33;;;;;-147.17;100.00;-15917.19;5061413;27;51249;-59
2022/06/17 07:10:47;;;;;;;;;13.00;12.00;;;;;-147.17;100.00;-15917.19;5053738;28;52158;-60
2022/06/17 07:13:15;;;;;;;;;14.00;13.33;;;;;-147.17;100.00;-15917.19;5059172;27;51285;-59
2022/06/17 07:15:42;;;;;;;;;11.00;10.00;;;;;-147.17;100.00;-15917.19;5068877;27;51301;-60
2022/06/17 07:18:18;;;;;;;;;12.67;12.00;;;;;-147.17;100.00;-15917.19;5053263;28;51013;-73
2022/06/17 07:20:50;;;;;;;;;11.33;11.00;;;;;-147.17;100.00;-15917.19;5061045;28;52092;-73
2022/06/17 07:23:29;;;;;;;;;15.67;14.67;;;;;-147.17;100.00;-15917.19;5056685;28;51228;-74
2022/06/17 07:25:57;;;;;;;;;16.00;14.33;;;;;-147.17;100.00;-15917.19;5069491;27;51032;-73
2022/06/17 07:28:23;;;;;;;;;15.33;15.33;;;;;-147.17;100.00;-15917.19;5052309;28;51193;-74
2022/06/17 07:30:51;;;;;;;;;14.33;14.00;;;;;-147.17;100.00;-15917.19;5052349;27;51137;-74
2022/06/17 07:33:18;;;;;;;;;13.00;12.00;;;;;-147.17;100.00;-15917.19;5069472;28;51292;-72
2022/06/17 07:35:46;;;;;;;;;11.00;10.00;;;;;-147.17;100.00;-15917.19;5063681;27;51162;-71
2022/06/17 07:40:58;;;;;;;;;13.00;12.00;;;;;-147.17;100.00;-15917.19;5062941;28;51529;-73
2022/06/17 07:43:24;;;;;;;;;11.33;11.00;;;;;-147.17;100.00;-15917.19;5057058;28;51301;-73
2022/06/17 07:45:50;;;;;;;;;14.00;13.00;;;;;-147.17;100.00;-15917.19;5065630;27;51102;-73
2022/06/17 07:48:15;;;;;;;;;11.00;11.00;;;;;-147.17;100.00;-15915.72;5063669;28;51394;-71
2022/06/17 07:50:43;;;;;;;;;12.00;12.00;;;;;-147.17;100.00;-15420.25;5068429;28;51616;-71
2022/06/17 07:53:09;;;;;;;;;14.00;13.00;;;;;-147.17;100.00;-15420.25;5071974;27;50980;-71
2022/06/17 07:55:35;;;;;;;;;15.67;15.67;;;;;-147.17;100.00;-14181.31;5068562;28;51047;-70
2022/06/17 07:58:01;;;;;;;;;11.00;10.00;;;;;-147.17;100.00;-14181.31;5064709;28;51424;-71
2022/06/17 08:00:30;;;;;;;;;12.00;11.25;;;;;-147.17;100.00;-13933.50;5071075;27;52238;-72
2022/06/17 08:02:56;;;;;;;;;11.33;11.33;;;;;-147.17;100.00;-13437.75;5053918;28;51191;-71
2022/06/17 08:05:21;;;;;;;;;14.25;13.75;;;;;-147.17;100.00;-13437.75;5055872;28;50855;-71
2022/06/17 08:07:48;;;;;;;;;9.50;9.50;;;;;-147.17;100.00;-11702.25;5067765;28;51389;-70
2022/06/17 08:10:20;;;;;;;;;9.00;9.00;;;;;-147.17;100.00;-10958.19;5071955;27;51142;-70
2022/06/17 08:12:46;;;;;;;;;12.00;11.25;;;;;-147.17;100.00;-10462.09;5071513;27;51074;-71
2022/06/17 08:15:12;;;;;;;;;11.75;11.75;;;;;-147.17;100.00;-9965.91;5071804;27;51138;-71
2022/06/17 08:17:39;;;;;;;;;11.00;11.00;;;;;-147.17;100.00;-9221.53;5071565;27;51254;-71
2022/06/17 08:20:09;;;;;;;;;10.50;10.50;;;;;-147.17;100.00;-7732.34;5054894;28;53221;-71
2022/06/17 08:22:36;;;;;;;;;11.25;11.25;;;;;-147.17;100.00;-7732.34;5038748;28;51143;-70
2022/06/17 08:25:02;;;;;;;;;15.25;13.50;;;;;-147.17;100.00;-7235.84;5033269;28;50926;-70
2022/06/17 08:27:28;;;;;;;;;11.00;11.00;;;;;-147.17;100.00;-6987.56;5056197;28;51043;-71
2022/06/17 08:29:53;;;;;;;;;12.75;12.00;;;;;-147.17;100.00;-5249.09;5062012;27;51874;-70
2022/06/17 08:35:03;;;;;;;;;10.25;10.25;;;;;-147.17;100.00;-3509.84;5060955;28;51163;-72
2022/06/17 08:37:28;;;;;;;;;10.33;10.33;;;;;-147.17;100.00;-1521.19;5066340;28;51491;-71
2022/06/17 08:39:55;;;;;;;;;12.00;11.00;;;;;-147.17;100.00;468.50;5067643;28;52954;-73
2022/06/17 08:42:52;;;;;;;;;10.50;10.50;;;;;-147.17;100.00;1961.44;5058439;28;51476;-71
2022/06/17 08:45:39;;;;;;;;;10.25;10.25;;;;;-147.17;100.00;2708.13;5060652;28;51133;-72
2022/06/17 08:48:24;;;;;;;;;10.00;10.00;;;;;-147.17;100.00;3952.94;5055721;28;51239;-72
2022/06/17 08:51:14;;;;;;;;;10.75;10.50;;;;;-147.17;100.00;5945.44;5055505;28;51169;-74
2022/06/17 08:54:07;;;;;;;;;10.75;10.00;;;;;-147.17;100.00;5945.44;5063376;28;51232;-71
2022/06/17 08:56:43;;;;;;;;;10.00;10.00;;;;;-147.17;100.00;7689.75;5058789;27;51308;-61
2022/06/17 08:59:39;;;;;;;;;11.25;11.00;;;;;-147.17;100.00;7440.50;5058232;28;51093;-60
2022/06/17 09:02:39;;;;;;;;;12.50;12.50;;;;;-147.17;100.00;9684.19;5066235;28;52092;-61
2022/06/17 09:05:27;;;;;;;;;11.25;10.50;;;;;-147.17;100.00;10432.38;5059944;27;51185;-61
2022/06/17 09:08:14;;;;;;;;;10.75;9.25;;;;;-147.17;100.00;12178.69;5053626;28;51382;-61
2022/06/17 09:10:50;;;;;;;;;9.50;9.50;;;;;-147.17;100.00;13426.53;5057083;28;51215;-61
2022/06/17 09:13:33;;;;;;;;;8.25;8.25;;;;;-147.17;100.00;13426.53;5052870;28;51616;-61
2022/06/17 09:16:36;;;;;;;;;12.25;11.00;;;;;-147.17;100.00;12428.22;5061428;27;51199;-61
2022/06/17 09:19:03;;;;;;;;;10.00;10.00;;;;;-147.17;100.00;14924.50;5065569;28;51267;-68
2022/06/17 09:21:47;;;;;;;;;12.50;11.00;;;;;-147.17;100.00;12428.22;5066295;27;51486;-68
2022/06/17 09:24:22;;;;;;;;;11.67;11.33;;;;;-147.17;100.00;12677.78;5062057;28;51069;-67
2022/06/17 09:26:56;;;;;;;;;10.00;10.00;;;;;-147.17;100.00;15673.69;5060548;28;51228;-55
2022/06/17 09:29:46;;;;;;;;;11.00;11.00;;;;;-147.17;100.00;15673.69;5053422;28;51447;-54
2022/06/17 09:32:24;;;;;;;;;13.25;13.25;;;;;-147.17;100.00;15174.22;5063913;27;51354;-55
2022/06/17 09:35:04;;;;;;;;;11.67;11.67;;;;;-147.17;100.00;16173.25;5061154;28;51235;-53
2022/06/17 09:37:38;;;;;;;;;11.00;10.33;;;;;-147.17;100.00;16173.25;5061852;28;51577;-54
2022/06/17 09:40:25;;;;;;;;;11.00;11.00;;;;;-147.17;100.00;14674.81;5063344;28;51197;-54
2022/06/17 09:43:06;;;;;;;;;8.67;8.67;;;;;-147.17;100.00;14425.13;5064346;27;51359;-54
2022/06/17 09:45:39;;;;;;;;;12.00;11.67;;;;;-147.17;100.00;16922.66;5060694;28;51217;-55
2022/06/17 09:48:32;;;;;;;;;10.00;9.33;;;;;-147.17;100.00;14924.50;5058089;27;51256;-55
2022/06/17 09:51:06;;;;;;;;;10.67;10.67;;;;;-147.17;100.00;17672.25;5057419;27;51307;-56
2022/06/17 09:53:54;;;;;;;;;9.33;9.00;;;;;-147.17;100.00;17172.50;5062970;27;51400;-54
2022/06/17 09:57:05;;;;;;;;;7.75;7.00;;;;;-147.17;100.00;18517.66;5056550;28;51376;-57
2022/06/17 09:59:36;;;;;;;;;11.00;10.00;;;;;-147.17;100.00;16922.66;5050696;28;51423;-56
2022/06/17 10:02:19;;;;;;;;;13.50;12.50;;;;;-147.17;100.00;18220.88;5066245;28;51043;-57
2022/06/17 10:04:44;;;;;;;;;9.67;9.67;;;;;-147.17;100.00;18921.88;5062114;28;51360;-55
2022/06/17 10:07:26;;;;;;;;;13.00;13.00;;;;;-147.17;100.00;19609.34;5061580;27;51293;-54
2022/06/17 10:10:20;;;;;;;;;9.33;9.00;;;;;-147.17;100.00;23531.34;5060122;27;51597;-55
2022/06/17 10:12:59;;;;;;;;;12.00;12.00;;;;;-147.17;100.00;24841.53;5059704;27;51189;-55
2022/06/17 10:18:48;;;;;;;;;9.67;9.67;;;;;-147.17;100.00;28988.09;5055780;28;51575;-56
2022/06/17 10:21:19;;;;;;;;;11.00;10.00;;;;;-147.17;100.00;29129.06;5060564;28;51166;-56
2022/06/17 10:24:13;;;;;;;;;9.67;9.33;;;;;-147.17;100.00;30258.97;5065622;27;51114;-55
2022/06/17 10:27:07;;;;;;;;;10.33;9.67;;;;;-147.17;100.00;33246.88;5056736;27;51063;-58
2022/06/17 10:30:01;;;;;;;;;9.00;8.67;;;;;-147.17;100.00;34095.66;5064616;28;51137;-56
2022/06/17 10:32:27;;;;;;;;;10.67;10.67;;;;;-147.17;100.00;34576.00;5064706;28;51190;-56
2022/06/17 10:34:58;;;;;;;;;10.33;10.33;;;;;-147.17;100.00;33701.63;5060517;28;51048;-54
2022/06/17 10:37:26;;;;;;;;;9.33;9.33;;;;;-147.17;100.00;34285.81;5064374;27;51149;-60
2022/06/17 10:39:52;;;;;;;;;10.00;10.00;;;;;-147.17;100.00;34160.34;5060190;27;50978;-54
2022/06/17 10:42:20;;;;;;;;;8.00;8.00;;;;;-147.17;100.00;35274.06;5058457;27;50938;-56
2022/06/17 10:44:53;;;;;;;;;7.00;7.00;;;;;-147.17;100.00;35154.44;5064044;27;51044;-55
2022/06/17 10:47:46;;;;;;;;;11.00;10.00;;;;;-147.17;100.00;36266.47;5059076;28;50957;-59
2022/06/17 10:50:21;;;;;;;;;7.00;6.00;;;;;-147.17;100.00;36774.53;5052116;28;51039;-56
2022/06/17 10:52:50;;;;;;;;;9.33;9.00;;;;;-147.17;100.00;36980.53;5060044;28;51178;-55
2022/06/17 10:55:23;;;;;;;;;9.00;8.67;;;;;-147.17;100.00;38648.47;5058380;27;51469;-55
2022/06/17 10:58:23;;;;;;;;;6.00;6.00;;;;;-147.17;100.00;38254.00;5061872;28;50838;-55
2022/06/17 11:00:54;;;;;;;;;6.33;6.33;;;;;-147.17;100.00;38630.81;5058526;28;51438;-56
2022/06/17 11:03:28;;;;;;;;;6.67;6.67;;;;;-147.17;100.00;39449.34;5052285;28;51030;-55
2022/06/17 11:06:23;;;;;;;;;8.67;8.33;;;;;-147.17;100.00;39070.50;5052123;28;51089;-54
2022/06/17 11:08:52;;;;;;;;;8.33;7.67;;;;;-147.17;100.00;40894.47;5044943;28;51181;-56
2022/06/17 11:12:03;;;;;;;;;8.00;8.00;;;;;-147.17;100.00;40240.56;5062681;27;51161;-55
2022/06/17 11:14:36;;;;;;;;;8.33;8.33;;;;;-147.17;100.00;40285.72;5052722;28;50889;-56
2022/06/17 11:17:18;;;;;;;;;11.67;11.33;;;;;-147.17;100.00;40434.97;5063200;28;51174;-55
2022/06/17 11:19:46;;;;;;;;;7.00;7.00;;;;;-147.17;100.00;40195.41;5052178;28;51179;-56
2022/06/17 11:22:35;;;;;;;;;10.33;10.33;;;;;-147.17;100.00;39724.19;5057284;28;52080;-62
2022/06/17 11:25:19;;;;;;;;;8.67;8.67;;;;;-147.17;100.00;39182.38;5072091;28;51260;-55